Guest Lauri FIN918

Lentokentällä huonoa säätä!

6 viestiä aiheessa

Iltaa.

 

Ajattelin pistää pystyyn tänne ketjun, jonne simulijat voivat kertoa, jos ovat huomanneet jossain kentällä normaalista poikkeavaa säätilaa(esim. METAR kertoo kovista tuulista, huonosta näkyvyydestä jne.).

 

Tässä nyt alkajaisiksi Dubaista ATIS(FR24:sen mukaan koneet holdailee. Saas nähä pitääkö divertata :)).

 

OMDB_TWR TOWER information CHARLIE recorded at 1739z OMDB 061703Z 29038G54KT 0600 R30R/0600 TSRA SCT040CB 27/19 Q1000 TEMPO VRB35G50KT 0300 TSRA SS BKN020CB ARR RWY 30L / DEP RWY 30R / TRL FL150 / TA 13000FT Welcome To Dubai Intr CONFIRM ATIS INFO CHARLIE on initial contact

Jaa viesti


Link to post
Jaa muulla sivustolla

No voi... Noh. Pahoittelut tästä.

 

Ei tuo minusta haittaa, katotaan jos nyt tämä ketju onnistuisi kun ei aiemmin samalla idealla ollut onnistunut. Aihe on mielenkiintoinen kuitenkin.

 

Niitä tämän aiheen "pilalle menneitä" ketjuja olikin monta itseasiassa.  ::)

Jaa viesti


Link to post
Jaa muulla sivustolla

Luo uusi käyttäjätunnus tai kirjaudu sisään

Sinun täytyy olla jäsen osallistuaksesi keskusteluun

Luo käyttäjätili

Rekisteröi uusi käyttäjätili helposti ja nopeasti!


Luo uusi käyttäjätili

Kirjaudu sisään

Sinulla on jo käyttäjätili?


Kirjaudu sisään